Time;durP1;ratioP1;P1;durP2;ratioP2;P2;SDS_P1;SDS_P2;PMS_P1;PMS_P2;Temp;Humidity;BMP_temperature;BMP_pressure;BME280_temperature;BME280_humidity;BME280_pressure;Samples;Min_cycle;Max_cycle;Signal;HPM_P1;HPM_P2
2023/01/23 00:02:14;;;;;;;7.03;5.97;;;;;;;;;;5057625;28;20210;-86
2023/01/23 00:04:41;;;;;;;8.00;7.07;;;;;;;;;;5062228;28;20331;-84
2023/01/23 00:07:08;;;;;;;8.67;6.20;;;;;;;;;;5050274;28;20267;-86
2023/01/23 00:09:35;;;;;;;7.47;6.53;;;;;;;;;;5042496;28;20694;-86
2023/01/23 00:12:04;;;;;;;10.17;6.50;;;;;;;;;;5058221;28;20229;-85
2023/01/23 00:14:31;;;;;;;10.50;6.40;;;;;;;;;;5060836;28;20210;-85
2023/01/23 00:16:58;;;;;;;10.03;6.53;;;;;;;;;;5051189;28;20762;-85
2023/01/23 00:19:25;;;;;;;6.47;5.63;;;;;;;;;;5051567;28;20287;-85
2023/01/23 00:21:51;;;;;;;6.50;5.73;;;;;;;;;;5050886;28;20280;-86
2023/01/23 00:24:18;;;;;;;7.67;4.93;;;;;;;;;;5051702;28;20202;-85
2023/01/23 00:26:45;;;;;;;6.80;5.20;;;;;;;;;;5055203;28;20208;-86
2023/01/23 00:29:14;;;;;;;6.00;5.50;;;;;;;;;;5060291;28;20205;-85
2023/01/23 00:31:41;;;;;;;5.27;4.77;;;;;;;;;;5033574;28;20319;-85
2023/01/23 00:34:11;;;;;;;8.00;5.87;;;;;;;;;;5062546;28;20205;-85
2023/01/23 00:36:42;;;;;;;7.73;5.30;;;;;;;;;;5052045;28;20209;-85
2023/01/23 00:39:11;;;;;;;5.80;4.80;;;;;;;;;;5051181;28;20244;-85
2023/01/23 00:41:38;;;;;;;7.77;5.30;;;;;;;;;;5071100;28;20205;-85
2023/01/23 00:44:05;;;;;;;6.80;5.07;;;;;;;;;;5070982;28;20213;-86
2023/01/23 00:46:33;;;;;;;6.30;5.10;;;;;;;;;;5050935;28;20283;-85
2023/01/23 00:49:00;;;;;;;5.73;5.00;;;;;;;;;;5049546;28;20747;-85
2023/01/23 00:51:27;;;;;;;4.93;4.43;;;;;;;;;;5050969;28;20225;-86
2023/01/23 00:53:54;;;;;;;9.13;6.23;;;;;;;;;;5050355;28;20209;-86
2023/01/23 00:56:21;;;;;;;9.50;5.43;;;;;;;;;;5063536;28;20754;-87
2023/01/23 00:58:48;;;;;;;6.70;6.07;;;;;;;;;;5050604;28;20238;-86
2023/01/23 01:01:16;;;;;;;7.37;5.53;;;;;;;;;;5036736;28;20240;-85
2023/01/23 01:03:45;;;;;;;6.30;4.90;;;;;;;;;;5050373;28;20214;-85
2023/01/23 01:06:12;;;;;;;6.30;5.10;;;;;;;;;;5049619;28;20229;-85
2023/01/23 01:08:42;;;;;;;6.97;5.07;;;;;;;;;;5050670;28;20312;-85
2023/01/23 01:11:09;;;;;;;5.90;4.63;;;;;;;;;;5074288;28;20684;-86
2023/01/23 01:13:36;;;;;;;6.43;5.17;;;;;;;;;;5059707;28;20244;-85
2023/01/23 01:16:03;;;;;;;7.47;4.97;;;;;;;;;;5074392;28;20213;-85
2023/01/23 01:18:30;;;;;;;6.87;6.17;;;;;;;;;;5073916;28;20205;-86
2023/01/23 01:20:59;;;;;;;7.00;4.73;;;;;;;;;;5064453;28;20212;-86
2023/01/23 01:23:26;;;;;;;6.77;4.23;;;;;;;;;;5052641;28;20270;-86
2023/01/23 01:25:53;;;;;;;7.77;5.13;;;;;;;;;;5064593;28;20236;-87
2023/01/23 01:28:20;;;;;;;6.53;5.57;;;;;;;;;;5068017;28;20619;-84
2023/01/23 01:30:46;;;;;;;6.63;5.27;;;;;;;;;;5063735;28;20229;-86
2023/01/23 01:33:13;;;;;;;5.13;4.73;;;;;;;;;;5057847;28;20214;-85
2023/01/23 01:35:41;;;;;;;7.63;4.87;;;;;;;;;;5063921;28;20212;-85
2023/01/23 01:38:09;;;;;;;9.40;5.50;;;;;;;;;;5056783;28;20284;-85
2023/01/23 01:40:37;;;;;;;11.10;5.90;;;;;;;;;;5062804;28;20687;-85
2023/01/23 01:43:07;;;;;;;6.63;5.43;;;;;;;;;;5056449;28;20217;-86
2023/01/23 01:46:09;;;;;;;6.23;5.60;;;;;;;;;;5052346;28;20684;-85
2023/01/23 01:48:41;;;;;;;6.43;5.70;;;;;;;;;;5052371;28;20220;-85
2023/01/23 01:51:11;;;;;;;6.17;5.07;;;;;;;;;;5055186;28;20295;-85
2023/01/23 01:53:40;;;;;;;7.57;5.00;;;;;;;;;;5053968;28;20631;-86
2023/01/23 01:56:09;;;;;;;9.00;5.67;;;;;;;;;;5086126;28;20210;-85
2023/01/23 01:58:37;;;;;;;7.83;5.07;;;;;;;;;;5064406;28;20247;-84
2023/01/23 02:01:04;;;;;;;6.47;5.77;;;;;;;;;;5054211;28;20214;-85
2023/01/23 02:03:30;;;;;;;8.43;5.20;;;;;;;;;;5053693;28;20216;-86
2023/01/23 02:05:58;;;;;;;7.07;5.87;;;;;;;;;;5071518;28;20212;-86
2023/01/23 02:08:47;;;;;;;7.37;6.07;;;;;;;;;;5060292;28;20202;-86
2023/01/23 02:11:15;;;;;;;6.73;5.40;;;;;;;;;;5042993;28;20240;-85
2023/01/23 02:13:44;;;;;;;5.73;4.97;;;;;;;;;;5056654;28;20209;-85
2023/01/23 02:16:15;;;;;;;6.10;5.47;;;;;;;;;;5063067;28;20205;-85
2023/01/23 02:18:46;;;;;;;9.83;6.30;;;;;;;;;;5066808;28;20606;-85
2023/01/23 02:21:14;;;;;;;5.57;5.00;;;;;;;;;;5052642;28;20399;-85
2023/01/23 02:23:50;;;;;;;8.67;5.50;;;;;;;;;;5059176;28;20201;-85
2023/01/23 02:26:22;;;;;;;6.40;5.37;;;;;;;;;;5072118;28;20679;-85
2023/01/23 02:28:52;;;;;;;7.43;5.97;;;;;;;;;;5059127;28;20209;-86
2023/01/23 02:31:19;;;;;;;7.93;6.07;;;;;;;;;;5056433;28;20619;-86
2023/01/23 02:33:52;;;;;;;6.63;6.03;;;;;;;;;;5053065;28;20672;-86
2023/01/23 02:36:24;;;;;;;7.23;5.47;;;;;;;;;;5053000;28;20214;-85
2023/01/23 02:38:57;;;;;;;6.40;4.33;;;;;;;;;;5052396;28;20222;-85
2023/01/23 02:41:28;;;;;;;8.40;5.13;;;;;;;;;;5066158;28;20202;-85
2023/01/23 02:43:56;;;;;;;6.93;5.73;;;;;;;;;;5052746;28;20266;-85
2023/01/23 02:46:24;;;;;;;6.13;5.53;;;;;;;;;;5052013;28;20650;-86
2023/01/23 02:48:51;;;;;;;7.73;6.93;;;;;;;;;;5065789;28;20212;-85
2023/01/23 02:51:19;;;;;;;10.97;7.80;;;;;;;;;;5066495;28;20217;-85
2023/01/23 02:53:46;;;;;;;9.83;6.97;;;;;;;;;;5065767;28;20205;-85
2023/01/23 02:56:13;;;;;;;7.33;6.57;;;;;;;;;;5072617;28;20209;-86
2023/01/23 03:01:27;;;;;;;9.23;6.60;;;;;;;;;;5063469;28;20295;-86
2023/01/23 03:03:55;;;;;;;8.93;7.47;;;;;;;;;;5067609;28;20293;-85
2023/01/23 03:06:23;;;;;;;8.93;5.93;;;;;;;;;;5061352;28;20719;-86
2023/01/23 03:08:50;;;;;;;6.83;6.17;;;;;;;;;;5068836;28;20761;-85
2023/01/23 03:11:19;;;;;;;7.23;6.27;;;;;;;;;;5062115;28;20696;-85
2023/01/23 03:13:47;;;;;;;10.37;7.10;;;;;;;;;;5068955;28;20697;-85
2023/01/23 03:16:15;;;;;;;11.93;7.80;;;;;;;;;;5060944;28;20275;-86
2023/01/23 03:18:42;;;;;;;14.10;8.43;;;;;;;;;;5052395;28;20218;-86
2023/01/23 03:21:09;;;;;;;11.83;7.87;;;;;;;;;;5052261;28;20209;-85
2023/01/23 03:23:40;;;;;;;7.37;6.63;;;;;;;;;;5050989;28;20256;-85
2023/01/23 03:26:07;;;;;;;8.30;6.93;;;;;;;;;;5052262;28;20220;-85
2023/01/23 03:31:20;;;;;;;6.77;5.77;;;;;;;;;;5058298;28;20232;-85
2023/01/23 03:33:47;;;;;;;10.50;7.83;;;;;;;;;;5044577;28;20201;-86
2023/01/23 03:36:14;;;;;;;6.00;5.13;;;;;;;;;;5064107;28;20251;-86
2023/01/23 03:41:23;;;;;;;6.03;5.43;;;;;;;;;;5060651;28;20679;-85
2023/01/23 03:41:28;;;;;;;9.53;6.47;;;;;;;;;;5052076;28;20784;-85
2023/01/23 03:43:55;;;;;;;8.33;5.10;;;;;;;;;;5062324;28;20209;-85
2023/01/23 03:46:24;;;;;;;10.53;6.47;;;;;;;;;;5071128;28;20209;-85
2023/01/23 03:48:51;;;;;;;11.10;6.80;;;;;;;;;;5070363;28;20220;-85
2023/01/23 03:51:18;;;;;;;8.50;5.17;;;;;;;;;;5071128;28;20714;-86
2023/01/23 03:53:44;;;;;;;8.63;5.43;;;;;;;;;;5059120;28;20588;-85
2023/01/23 03:56:11;;;;;;;7.87;5.53;;;;;;;;;;5051534;28;20205;-86
2023/01/23 03:58:38;;;;;;;6.90;5.97;;;;;;;;;;5050097;28;20666;-85
2023/01/23 04:01:06;;;;;;;8.57;5.20;;;;;;;;;;5047160;28;20209;-86
2023/01/23 04:03:35;;;;;;;6.93;5.53;;;;;;;;;;5064725;28;20205;-87
2023/01/23 04:06:02;;;;;;;5.93;5.30;;;;;;;;;;5070379;28;20205;-87
2023/01/23 04:08:29;;;;;;;6.10;4.87;;;;;;;;;;5054207;28;20671;-86
2023/01/23 04:11:03;;;;;;;9.73;4.80;;;;;;;;;;5051225;28;20267;-86
2023/01/23 04:13:31;;;;;;;16.73;6.63;;;;;;;;;;5051313;28;20220;-87
2023/01/23 04:15:57;;;;;;;8.53;6.27;;;;;;;;;;5051508;28;20669;-86
2023/01/23 04:18:24;;;;;;;7.70;5.17;;;;;;;;;;5051452;28;20267;-85
2023/01/23 04:20:53;;;;;;;7.13;5.67;;;;;;;;;;5051697;28;20676;-86
2023/01/23 04:23:21;;;;;;;8.80;6.57;;;;;;;;;;5052271;28;20260;-86
2023/01/23 04:25:48;;;;;;;7.87;6.87;;;;;;;;;;5061358;28;20217;-86
2023/01/23 04:28:15;;;;;;;6.47;5.17;;;;;;;;;;5051650;28;20206;-87
2023/01/23 04:30:42;;;;;;;10.33;6.63;;;;;;;;;;5051141;28;20202;-86
2023/01/23 04:33:09;;;;;;;6.90;5.30;;;;;;;;;;5053503;28;20229;-86
2023/01/23 04:35:36;;;;;;;7.93;5.63;;;;;;;;;;5059951;28;20263;-86
2023/01/23 04:38:05;;;;;;;11.57;6.23;;;;;;;;;;5066097;28;20213;-87
2023/01/23 04:40:33;;;;;;;7.47;5.53;;;;;;;;;;5060056;28;20209;-86
2023/01/23 04:43:00;;;;;;;6.83;5.47;;;;;;;;;;5051088;28;20201;-86
2023/01/23 04:45:27;;;;;;;9.60;5.90;;;;;;;;;;5055119;28;20206;-86
2023/01/23 04:47:53;;;;;;;8.00;5.83;;;;;;;;;;5070494;28;20283;-86
2023/01/23 04:50:21;;;;;;;7.80;5.70;;;;;;;;;;5075032;28;20212;-85
2023/01/23 04:52:48;;;;;;;13.63;7.77;;;;;;;;;;5070418;28;20234;-86
2023/01/23 04:55:16;;;;;;;13.40;9.37;;;;;;;;;;5054855;28;20750;-86
2023/01/23 04:57:43;;;;;;;8.33;6.17;;;;;;;;;;5041751;28;20246;-84
2023/01/23 05:00:12;;;;;;;15.80;10.23;;;;;;;;;;5058967;28;20295;-82
2023/01/23 05:02:39;;;;;;;8.57;6.97;;;;;;;;;;5065981;28;20198;-84
2023/01/23 05:05:07;;;;;;;8.93;7.07;;;;;;;;;;5054624;28;20221;-83
2023/01/23 05:07:34;;;;;;;7.37;6.07;;;;;;;;;;5054599;28;20202;-83
2023/01/23 05:10:01;;;;;;;9.60;6.90;;;;;;;;;;5063372;28;20205;-83
2023/01/23 05:12:29;;;;;;;4.83;4.27;;;;;;;;;;5057005;28;20221;-82
2023/01/23 05:14:55;;;;;;;7.03;5.67;;;;;;;;;;5054445;28;20785;-83
2023/01/23 05:17:22;;;;;;;6.97;6.27;;;;;;;;;;5054265;28;20209;-83
2023/01/23 05:19:49;;;;;;;6.73;4.63;;;;;;;;;;5054534;28;20198;-83
2023/01/23 05:22:16;;;;;;;6.50;4.67;;;;;;;;;;5052511;28;20607;-83
2023/01/23 05:24:43;;;;;;;5.20;4.70;;;;;;;;;;5067168;28;20205;-83
2023/01/23 05:27:10;;;;;;;8.50;5.77;;;;;;;;;;5062899;28;20209;-83
2023/01/23 05:29:38;;;;;;;5.63;5.03;;;;;;;;;;5057929;28;20688;-83
2023/01/23 05:32:06;;;;;;;7.73;4.80;;;;;;;;;;5063416;28;20225;-83
2023/01/23 05:34:33;;;;;;;6.37;5.17;;;;;;;;;;5074247;28;20208;-84
2023/01/23 05:36:59;;;;;;;6.27;5.03;;;;;;;;;;5053294;28;20202;-83
2023/01/23 05:39:26;;;;;;;7.07;6.07;;;;;;;;;;5052393;28;20688;-82
2023/01/23 05:41:53;;;;;;;4.90;4.40;;;;;;;;;;5049439;28;20267;-83
2023/01/23 05:44:20;;;;;;;7.23;5.03;;;;;;;;;;5062940;28;20255;-83
2023/01/23 05:46:49;;;;;;;6.47;4.90;;;;;;;;;;5058265;28;20198;-83
2023/01/23 05:49:15;;;;;;;8.70;6.57;;;;;;;;;;5073663;28;20290;-84
2023/01/23 05:51:42;;;;;;;9.37;7.17;;;;;;;;;;5058684;28;20202;-82
2023/01/23 05:54:10;;;;;;;5.93;5.37;;;;;;;;;;5073565;28;20201;-84
2023/01/23 05:56:37;;;;;;;5.40;4.90;;;;;;;;;;5062398;28;20210;-83
2023/01/23 05:59:04;;;;;;;5.00;4.50;;;;;;;;;;5066561;28;20240;-83
2023/01/23 06:01:30;;;;;;;8.83;6.97;;;;;;;;;;5053348;28;20206;-83
2023/01/23 06:03:59;;;;;;;6.90;5.30;;;;;;;;;;5056323;28;20631;-83
2023/01/23 06:06:25;;;;;;;8.13;6.87;;;;;;;;;;5073243;28;20224;-83
2023/01/23 06:08:52;;;;;;;9.13;8.23;;;;;;;;;;5072698;28;20266;-85
2023/01/23 06:11:19;;;;;;;12.13;6.40;;;;;;;;;;5063445;28;20205;-83
2023/01/23 06:13:45;;;;;;;10.73;9.37;;;;;;;;;;5069776;28;20715;-83
2023/01/23 06:16:12;;;;;;;7.60;6.80;;;;;;;;;;5072765;28;20209;-83
2023/01/23 06:18:39;;;;;;;7.30;6.23;;;;;;;;;;5055321;28;20206;-83
2023/01/23 06:21:07;;;;;;;8.33;5.33;;;;;;;;;;5053077;28;20213;-83
2023/01/23 06:23:34;;;;;;;8.57;6.43;;;;;;;;;;5052796;28;20754;-83
2023/01/23 06:26:01;;;;;;;11.40;9.33;;;;;;;;;;5052935;28;20209;-83
2023/01/23 06:28:28;;;;;;;8.70;6.77;;;;;;;;;;5052918;28;20202;-83
2023/01/23 06:30:55;;;;;;;10.90;9.73;;;;;;;;;;5053131;28;20202;-83
2023/01/23 06:33:22;;;;;;;11.33;7.87;;;;;;;;;;5070219;28;20700;-83
2023/01/23 06:35:48;;;;;;;8.93;7.40;;;;;;;;;;5061737;28;20590;-82
2023/01/23 06:38:17;;;;;;;10.50;8.23;;;;;;;;;;5052836;28;20264;-83
2023/01/23 06:40:45;;;;;;;7.50;6.77;;;;;;;;;;5064282;28;20204;-83
2023/01/23 06:43:11;;;;;;;9.93;7.27;;;;;;;;;;5053641;28;20241;-83
2023/01/23 06:45:38;;;;;;;8.03;7.17;;;;;;;;;;5052302;28;20205;-84
2023/01/23 06:48:05;;;;;;;6.47;5.73;;;;;;;;;;5052142;28;20224;-83
2023/01/23 06:50:32;;;;;;;6.30;5.70;;;;;;;;;;5064401;28;20233;-83
2023/01/23 06:52:59;;;;;;;7.03;6.33;;;;;;;;;;5072453;28;20232;-83
2023/01/23 06:55:27;;;;;;;8.67;6.73;;;;;;;;;;5059361;28;20259;-83
2023/01/23 06:57:53;;;;;;;7.63;6.57;;;;;;;;;;5039013;28;20202;-84
2023/01/23 07:00:24;;;;;;;5.57;5.07;;;;;;;;;;5052442;28;20209;-83
2023/01/23 07:02:51;;;;;;;6.43;5.70;;;;;;;;;;5059855;28;20209;-83
2023/01/23 07:05:19;;;;;;;9.20;5.77;;;;;;;;;;5057823;28;20232;-83
2023/01/23 07:07:46;;;;;;;5.97;5.33;;;;;;;;;;5050860;28;20669;-84
2023/01/23 07:10:14;;;;;;;6.57;5.83;;;;;;;;;;5053645;28;20209;-83
2023/01/23 07:12:43;;;;;;;6.40;5.83;;;;;;;;;;5063371;28;20233;-84
2023/01/23 07:15:10;;;;;;;8.77;6.23;;;;;;;;;;5051560;28;20202;-85
2023/01/23 07:17:36;;;;;;;7.13;6.43;;;;;;;;;;5061135;28;20753;-83
2023/01/23 07:20:04;;;;;;;9.07;6.43;;;;;;;;;;5056019;28;20205;-83
2023/01/23 07:22:30;;;;;;;9.83;7.03;;;;;;;;;;5051984;28;20245;-83
2023/01/23 07:24:57;;;;;;;9.83;6.30;;;;;;;;;;5065032;28;20201;-83
2023/01/23 07:27:24;;;;;;;7.33;6.60;;;;;;;;;;5061551;28;20212;-83
2023/01/23 07:29:52;;;;;;;8.50;7.50;;;;;;;;;;5047396;28;20743;-83
2023/01/23 07:32:19;;;;;;;9.07;7.33;;;;;;;;;;5062133;28;20665;-84
2023/01/23 07:34:46;;;;;;;6.43;5.83;;;;;;;;;;5053651;28;20639;-83
2023/01/23 07:37:12;;;;;;;6.17;5.57;;;;;;;;;;5051802;28;20206;-84
2023/01/23 07:39:39;;;;;;;7.73;5.10;;;;;;;;;;5068774;28;20208;-83
2023/01/23 07:42:06;;;;;;;10.43;7.77;;;;;;;;;;5060765;28;20210;-83
2023/01/23 07:44:33;;;;;;;9.90;6.33;;;;;;;;;;5055600;28;20267;-83
2023/01/23 07:47:01;;;;;;;6.83;5.77;;;;;;;;;;5059744;28;20635;-83
2023/01/23 07:49:27;;;;;;;9.93;7.70;;;;;;;;;;5051712;28;20202;-83
2023/01/23 07:51:54;;;;;;;6.40;5.67;;;;;;;;;;5051436;28;20229;-83
2023/01/23 07:54:21;;;;;;;11.70;7.63;;;;;;;;;;5065390;28;20222;-83
2023/01/23 07:56:49;;;;;;;11.17;6.57;;;;;;;;;;5051377;28;20264;-83
2023/01/23 07:59:16;;;;;;;9.87;5.60;;;;;;;;;;5051202;28;20225;-84
2023/01/23 08:01:43;;;;;;;7.47;5.83;;;;;;;;;;5050913;28;20201;-84
2023/01/23 08:04:11;;;;;;;8.37;7.00;;;;;;;;;;5056308;28;20653;-83
2023/01/23 08:06:38;;;;;;;9.07;6.90;;;;;;;;;;5058960;28;20620;-84
2023/01/23 08:09:04;;;;;;;7.53;6.53;;;;;;;;;;5064502;28;20202;-83
2023/01/23 08:11:31;;;;;;;7.90;7.10;;;;;;;;;;5051102;28;20206;-83
2023/01/23 08:13:58;;;;;;;8.33;6.87;;;;;;;;;;5056408;28;20600;-83
2023/01/23 08:16:25;;;;;;;7.13;5.70;;;;;;;;;;5071040;28;20267;-83
2023/01/23 08:18:52;;;;;;;8.70;6.70;;;;;;;;;;5064844;28;20205;-83
2023/01/23 08:21:20;;;;;;;6.07;5.00;;;;;;;;;;5050807;28;20205;-83
2023/01/23 08:23:47;;;;;;;5.97;5.37;;;;;;;;;;5057126;28;20201;-84
2023/01/23 08:26:16;;;;;;;6.47;5.87;;;;;;;;;;5070620;28;21143;-86
2023/01/23 08:28:43;;;;;;;6.20;5.50;;;;;;;;;;5064316;28;20205;-84
2023/01/23 08:31:11;;;;;;;6.17;5.40;;;;;;;;;;5050984;28;20214;-83
2023/01/23 08:33:39;;;;;;;8.53;6.53;;;;;;;;;;5050740;28;20236;-83
2023/01/23 08:36:07;;;;;;;6.97;5.57;;;;;;;;;;5063990;28;20676;-83
2023/01/23 08:38:35;;;;;;;8.30;6.20;;;;;;;;;;5059664;28;20704;-83
2023/01/23 08:41:03;;;;;;;8.00;6.57;;;;;;;;;;5067936;28;20611;-83
2023/01/23 08:43:30;;;;;;;6.23;5.63;;;;;;;;;;5041354;28;20206;-83
2023/01/23 08:45:58;;;;;;;7.30;6.30;;;;;;;;;;5047364;28;20256;-83
2023/01/23 08:48:26;;;;;;;4.67;4.27;;;;;;;;;;5060777;28;20831;-83
2023/01/23 08:50:59;;;;;;;6.97;5.70;;;;;;;;;;5066687;28;20205;-83
2023/01/23 08:53:26;;;;;;;5.73;5.13;;;;;;;;;;5061534;28;20753;-83
2023/01/23 08:55:54;;;;;;;5.47;4.93;;;;;;;;;;5067430;28;20206;-83
2023/01/23 08:58:21;;;;;;;4.90;4.50;;;;;;;;;;5060434;28;20229;-84
2023/01/23 09:00:48;;;;;;;6.50;4.63;;;;;;;;;;5070231;28;20707;-83
2023/01/23 09:03:15;;;;;;;7.10;4.63;;;;;;;;;;5059930;28;20732;-84
2023/01/23 09:05:42;;;;;;;9.20;8.10;;;;;;;;;;5050057;28;20206;-84
2023/01/23 09:08:08;;;;;;;6.40;5.70;;;;;;;;;;5050660;28;20202;-84
2023/01/23 09:10:35;;;;;;;5.80;5.20;;;;;;;;;;5067993;28;20197;-83
2023/01/23 09:13:04;;;;;;;5.50;4.93;;;;;;;;;;5069768;28;20215;-83
2023/01/23 09:15:31;;;;;;;6.07;4.87;;;;;;;;;;5065641;28;20202;-83
2023/01/23 09:17:58;;;;;;;5.87;5.23;;;;;;;;;;5050639;28;20202;-84
2023/01/23 09:20:25;;;;;;;4.00;3.60;;;;;;;;;;5054862;28;20209;-83
2023/01/23 09:22:52;;;;;;;6.20;4.73;;;;;;;;;;5059040;28;20198;-84
2023/01/23 09:25:19;;;;;;;10.67;7.77;;;;;;;;;;5055229;28;20209;-83
2023/01/23 09:27:46;;;;;;;6.73;6.13;;;;;;;;;;5070307;28;20227;-84
2023/01/23 09:30:14;;;;;;;7.67;6.90;;;;;;;;;;5052547;28;20205;-84
2023/01/23 09:32:41;;;;;;;6.03;5.43;;;;;;;;;;5053530;28;20263;-88
2023/01/23 09:35:09;;;;;;;8.97;7.40;;;;;;;;;;5053853;28;20237;-83
2023/01/23 09:40:18;;;;;;;9.83;8.10;;;;;;;;;;5033287;28;20198;-87
2023/01/23 09:42:46;;;;;;;5.93;5.43;;;;;;;;;;5048125;28;20568;-83
2023/01/23 09:45:18;;;;;;;7.73;6.97;;;;;;;;;;5053766;28;20213;-84
2023/01/23 09:47:49;;;;;;;8.50;5.77;;;;;;;;;;5066878;28;20201;-83
2023/01/23 09:50:21;;;;;;;6.83;5.73;;;;;;;;;;5062961;28;20204;-83
2023/01/23 09:52:53;;;;;;;7.60;5.60;;;;;;;;;;5068688;28;20217;-83
2023/01/23 09:55:26;;;;;;;6.90;5.53;;;;;;;;;;5065379;28;20265;-83
2023/01/23 09:57:55;;;;;;;7.13;5.80;;;;;;;;;;5059609;28;20209;-83
2023/01/23 10:00:26;;;;;;;6.53;5.90;;;;;;;;;;5073228;28;20235;-85
2023/01/23 10:02:54;;;;;;;6.30;5.30;;;;;;;;;;5056518;28;20969;-83
2023/01/23 10:05:24;;;;;;;6.57;5.10;;;;;;;;;;5067202;28;20205;-84
2023/01/23 10:08:00;;;;;;;7.90;5.80;;;;;;;;;;5065262;28;20244;-83
2023/01/23 10:10:55;;;;;;;7.87;5.37;;;;;;;;;;5056448;28;20204;-82
2023/01/23 10:13:31;;;;;;;5.43;4.93;;;;;;;;;;5046289;28;20225;-83
2023/01/23 10:16:14;;;;;;;5.13;4.63;;;;;;;;;;5056320;28;20201;-83
2023/01/23 10:18:46;;;;;;;7.10;5.13;;;;;;;;;;5059847;28;20208;-84
2023/01/23 10:21:18;;;;;;;5.03;4.10;;;;;;;;;;5060601;28;20210;-83
2023/01/23 10:23:53;;;;;;;7.37;6.00;;;;;;;;;;5072701;28;20205;-84
2023/01/23 10:26:22;;;;;;;8.30;6.80;;;;;;;;;;5058463;28;20233;-83
2023/01/23 10:28:51;;;;;;;7.03;4.77;;;;;;;;;;5060883;28;20266;-83
2023/01/23 10:31:28;;;;;;;9.10;7.77;;;;;;;;;;5057616;28;20202;-83
2023/01/23 10:34:02;;;;;;;9.67;7.20;;;;;;;;;;5062767;28;20236;-83
2023/01/23 10:36:34;;;;;;;5.90;4.60;;;;;;;;;;5058966;28;20687;-83
2023/01/23 10:39:03;;;;;;;5.57;4.73;;;;;;;;;;5072268;28;20224;-83
2023/01/23 10:41:30;;;;;;;5.93;4.53;;;;;;;;;;5058869;28;20224;-83
2023/01/23 10:43:57;;;;;;;6.33;5.73;;;;;;;;;;5072656;28;20212;-83
2023/01/23 10:46:31;;;;;;;8.07;6.97;;;;;;;;;;5071886;28;20270;-83
2023/01/23 10:49:01;;;;;;;7.30;5.87;;;;;;;;;;5071492;28;20760;-84
2023/01/23 10:51:31;;;;;;;6.53;5.67;;;;;;;;;;5059934;28;20625;-83
2023/01/23 10:54:18;;;;;;;5.93;5.37;;;;;;;;;;5071239;28;20699;-83
2023/01/23 10:56:49;;;;;;;5.57;4.57;;;;;;;;;;5063548;28;20282;-84
2023/01/23 10:59:21;;;;;;;4.70;4.30;;;;;;;;;;5053859;28;20670;-84
2023/01/23 11:01:58;;;;;;;4.60;4.20;;;;;;;;;;5052476;28;20639;-83
2023/01/23 11:04:27;;;;;;;4.30;3.63;;;;;;;;;;5040150;28;20629;-84
2023/01/23 11:07:02;;;;;;;3.77;3.43;;;;;;;;;;5052576;28;20283;-84
2023/01/23 11:09:31;;;;;;;4.60;4.20;;;;;;;;;;5051950;28;20594;-84
2023/01/23 11:12:05;;;;;;;3.97;3.53;;;;;;;;;;5054821;28;20212;-84
2023/01/23 11:14:32;;;;;;;4.57;4.17;;;;;;;;;;5060935;28;20217;-84
2023/01/23 11:17:02;;;;;;;5.37;4.83;;;;;;;;;;5065012;28;20210;-84
2023/01/23 11:19:32;;;;;;;4.70;4.30;;;;;;;;;;5063547;28;20288;-84
2023/01/23 11:22:00;;;;;;;4.93;4.53;;;;;;;;;;5053125;28;20263;-85
2023/01/23 11:24:35;;;;;;;4.77;3.50;;;;;;;;;;5051572;28;20676;-83
2023/01/23 11:27:05;;;;;;;4.57;4.17;;;;;;;;;;5032029;28;20738;-83
2023/01/23 11:30:01;;;;;;;4.67;4.27;;;;;;;;;;5046631;28;20700;-84
2023/01/23 11:32:31;;;;;;;5.50;5.00;;;;;;;;;;5060215;28;20202;-84
2023/01/23 11:35:12;;;;;;;8.83;7.93;;;;;;;;;;5057098;28;20224;-84
2023/01/23 11:37:40;;;;;;;7.80;6.43;;;;;;;;;;5070108;28;20232;-84
2023/01/23 11:40:13;;;;;;;4.67;3.97;;;;;;;;;;5060049;28;20205;-84
2023/01/23 11:42:42;;;;;;;8.23;7.10;;;;;;;;;;5071167;28;20232;-84
2023/01/23 11:45:13;;;;;;;7.37;5.20;;;;;;;;;;5071607;28;20205;-83
2023/01/23 11:47:52;;;;;;;5.13;4.63;;;;;;;;;;5057686;28;20212;-83
2023/01/23 11:50:28;;;;;;;8.97;7.80;;;;;;;;;;5058935;28;20688;-84
2023/01/23 11:53:00;;;;;;;6.37;5.77;;;;;;;;;;5057040;28;20668;-84
2023/01/23 11:55:37;;;;;;;6.93;6.17;;;;;;;;;;5058296;28;20237;-84
2023/01/23 11:58:13;;;;;;;11.37;10.27;;;;;;;;;;5047221;28;20216;-83
2023/01/23 12:00:44;;;;;;;10.03;7.90;;;;;;;;;;5054961;28;20683;-83
2023/01/23 12:03:45;;;;;;;12.57;9.73;;;;;;;;;;5061486;28;20220;-83
2023/01/23 12:06:39;;;;;;;7.77;6.70;;;;;;;;;;5071038;28;20699;-85
2023/01/23 12:09:11;;;;;;;8.07;6.43;;;;;;;;;;5052431;28;20580;-84
2023/01/23 12:11:49;;;;;;;6.70;6.03;;;;;;;;;;5063848;28;20202;-84
2023/01/23 12:14:22;;;;;;;9.40;8.40;;;;;;;;;;5047768;28;20224;-84
2023/01/23 12:17:13;;;;;;;11.43;9.50;;;;;;;;;;5057738;28;20202;-83
2023/01/23 12:20:15;;;;;;;10.50;7.37;;;;;;;;;;5068526;28;20201;-84
2023/01/23 12:22:50;;;;;;;12.87;10.00;;;;;;;;;;5060153;28;20676;-83
2023/01/23 12:25:22;;;;;;;9.93;8.63;;;;;;;;;;5051068;28;20623;-84
2023/01/23 12:27:56;;;;;;;12.50;11.20;;;;;;;;;;5064006;28;20753;-84
2023/01/23 12:30:40;;;;;;;8.43;7.60;;;;;;;;;;5038552;28;20206;-83
2023/01/23 12:33:26;;;;;;;9.47;7.33;;;;;;;;;;5067585;28;20204;-83
2023/01/23 12:36:13;;;;;;;9.63;6.97;;;;;;;;;;5071078;28;20282;-84
2023/01/23 12:38:45;;;;;;;5.43;4.47;;;;;;;;;;5039750;28;20287;-84
2023/01/23 12:41:15;;;;;;;8.53;5.87;;;;;;;;;;5066801;28;20209;-84
2023/01/23 12:43:48;;;;;;;6.03;4.93;;;;;;;;;;5070619;28;20220;-84
2023/01/23 12:46:19;;;;;;;8.47;4.70;;;;;;;;;;5066457;28;20634;-88
2023/01/23 12:48:49;;;;;;;5.87;5.20;;;;;;;;;;5062788;28;20209;-85
2023/01/23 12:51:22;;;;;;;6.40;5.23;;;;;;;;;;5051661;28;20279;-84
2023/01/23 12:53:52;;;;;;;6.23;5.33;;;;;;;;;;5051463;28;20206;-84
2023/01/23 12:56:24;;;;;;;6.57;5.57;;;;;;;;;;5037112;28;20210;-85
2023/01/23 12:58:56;;;;;;;13.23;8.60;;;;;;;;;;5056148;28;20234;-83
2023/01/23 13:01:38;;;;;;;9.40;7.77;;;;;;;;;;5053671;28;20205;-84
2023/01/23 13:04:14;;;;;;;6.80;6.10;;;;;;;;;;5070835;28;20603;-84
2023/01/23 13:06:54;;;;;;;8.70;7.00;;;;;;;;;;5074468;28;20209;-85
2023/01/23 13:09:27;;;;;;;8.77;7.87;;;;;;;;;;5066678;28;20214;-84
2023/01/23 13:12:01;;;;;;;8.27;7.30;;;;;;;;;;5054474;28;20201;-84
2023/01/23 13:14:42;;;;;;;11.63;7.03;;;;;;;;;;5063861;28;20240;-84
2023/01/23 13:17:28;;;;;;;8.40;6.77;;;;;;;;;;5060527;28;20288;-84
2023/01/23 13:23:19;;;;;;;7.27;6.40;;;;;;;;;;5061171;28;20208;-83
2023/01/23 13:25:46;;;;;;;7.63;6.63;;;;;;;;;;5053309;28;20633;-83
2023/01/23 13:28:26;;;;;;;13.07;6.93;;;;;;;;;;5074017;28;20209;-83
2023/01/23 13:31:00;;;;;;;13.70;8.10;;;;;;;;;;5062563;28;20206;-83
2023/01/23 13:33:52;;;;;;;7.67;6.27;;;;;;;;;;5072997;28;20687;-84
2023/01/23 13:36:34;;;;;;;9.33;6.63;;;;;;;;;;5047313;28;20316;-84
2023/01/23 13:39:20;;;;;;;9.83;8.57;;;;;;;;;;5065575;28;20201;-83
2023/01/23 13:41:50;;;;;;;19.97;12.87;;;;;;;;;;5041094;28;20225;-83
2023/01/23 13:44:25;;;;;;;9.40;6.87;;;;;;;;;;5067127;28;20258;-83
2023/01/23 13:49:49;;;;;;;8.97;7.17;;;;;;;;;;5063375;28;20223;-84
2023/01/23 13:49:59;;;;;;;7.57;6.77;;;;;;;;;;5041019;28;20225;-84
2023/01/23 13:58:03;;;;;;;20.40;12.83;;;;;;;;;;5073347;28;20327;-85
2023/01/23 14:00:30;;;;;;;13.70;8.07;;;;;;;;;;5073640;28;20221;-83
2023/01/23 14:05:43;;;;;;;19.30;14.03;;;;;;;;;;5057265;28;20208;-84
2023/01/23 14:08:17;;;;;;;11.87;9.17;;;;;;;;;;5062280;28;20206;-85
2023/01/23 14:10:48;;;;;;;10.97;8.03;;;;;;;;;;5066336;28;20292;-83
2023/01/23 14:13:20;;;;;;;12.07;8.50;;;;;;;;;;5053634;28;20209;-84
2023/01/23 14:18:35;;;;;;;13.30;8.57;;;;;;;;;;5059610;28;20216;-83
2023/01/23 14:21:03;;;;;;;11.27;8.03;;;;;;;;;;5063300;28;20202;-84
2023/01/23 14:23:34;;;;;;;19.40;10.47;;;;;;;;;;5070048;28;20288;-84
2023/01/23 14:26:03;;;;;;;14.33;10.70;;;;;;;;;;5061619;28;20649;-84
2023/01/23 14:28:30;;;;;;;13.37;10.03;;;;;;;;;;5058238;28;20216;-84
2023/01/23 14:30:59;;;;;;;12.00;9.37;;;;;;;;;;5060645;28;20225;-84
2023/01/23 14:33:26;;;;;;;12.93;9.00;;;;;;;;;;5058484;28;20668;-83
2023/01/23 14:35:54;;;;;;;14.67;6.87;;;;;;;;;;5060234;28;20242;-85
2023/01/23 14:38:29;;;;;;;13.80;8.43;;;;;;;;;;5052570;28;20208;-85
2023/01/23 14:40:56;;;;;;;12.40;9.83;;;;;;;;;;5065957;28;20204;-84
2023/01/23 14:43:27;;;;;;;14.00;10.90;;;;;;;;;;5060229;28;20271;-84
2023/01/23 14:45:59;;;;;;;14.40;8.83;;;;;;;;;;5070938;28;20287;-84
2023/01/23 14:48:27;;;;;;;22.40;14.53;;;;;;;;;;5052814;28;20205;-84
2023/01/23 14:51:05;;;;;;;13.27;11.27;;;;;;;;;;5065848;28;20217;-84
2023/01/23 14:53:32;;;;;;;17.77;12.43;;;;;;;;;;5052784;28;20202;-84
2023/01/23 14:56:00;;;;;;;46.80;24.40;;;;;;;;;;5055895;28;20236;-84
2023/01/23 14:58:30;;;;;;;14.57;11.03;;;;;;;;;;5061145;28;20237;-85
2023/01/23 15:00:57;;;;;;;23.97;15.07;;;;;;;;;;5065424;28;20651;-84
2023/01/23 15:03:44;;;;;;;25.30;17.10;;;;;;;;;;5052441;28;20202;-84
2023/01/23 15:06:17;;;;;;;27.43;15.73;;;;;;;;;;5048572;28;20216;-85
2023/01/23 15:08:44;;;;;;;31.70;18.77;;;;;;;;;;5055976;28;20612;-84
2023/01/23 15:11:12;;;;;;;23.17;16.73;;;;;;;;;;5052335;28;20221;-84
2023/01/23 15:13:47;;;;;;;14.60;9.80;;;;;;;;;;5052024;28;20204;-84
2023/01/23 15:16:19;;;;;;;14.70;9.23;;;;;;;;;;5052176;28;20233;-84
2023/01/23 15:18:56;;;;;;;14.10;10.53;;;;;;;;;;5070398;28;20209;-86
2023/01/23 15:21:27;;;;;;;14.03;9.20;;;;;;;;;;5058884;28;20275;-84